Spa, Belgium
Current Conditions -  °F | °C
As of 2:20 AM on Sunday 26 Oct 2014 (Local Time) from EBLG Reporting Station
Broken Clouds Broken Clouds  
Wind Chill: 50°   Ceiling: 3900
Heat Index: 50°   Visibility: 6mi
Dew Point: 46°   Wind: 8mph
Humidity: 87%   Direction: 200°SSW
Pressure: 30.24"   Gusts: NA
Location:  50.3°N, 5.52°E
Report Text: EBLG 260020Z 20007KT 9000 BKN039 10/08 Q1024 NOSIG
Loading
Personal Weather Stations






























Interactive Weather Map
Tropical Storm Tracking
New forecast layout! Learn more

10-Day Weather Forecast

Advertisements
Track Severe Weather on mobile